createdAt,value
2022-09-15T00:00:09.021Z,99296.88
2022-09-15T00:02:35.770Z,99220.91
2022-09-15T00:05:02.490Z,99283.41
2022-09-15T00:07:29.247Z,99296.19
2022-09-15T00:09:55.849Z,99306.03
2022-09-15T00:12:22.529Z,99287.47
2022-09-15T00:14:49.115Z,99280.00
2022-09-15T00:17:15.728Z,99286.19
2022-09-15T00:19:42.336Z,99303.75
2022-09-15T00:22:08.929Z,99282.28
2022-09-15T00:24:36.082Z,99278.34
2022-09-15T00:27:03.232Z,99311.66
2022-09-15T00:29:30.274Z,99293.25
2022-09-15T00:31:56.916Z,99282.00
2022-09-15T00:34:23.531Z,99278.63
2022-09-15T00:36:50.144Z,99302.63
2022-09-15T00:39:16.966Z,99308.44
2022-09-15T00:41:43.652Z,99322.78
2022-09-15T00:44:16.084Z,99326.97
2022-09-15T00:46:58.680Z,99322.50
2022-09-15T00:49:37.877Z,99304.34
2022-09-15T00:52:08.777Z,99336.13
2022-09-15T00:54:53.965Z,99250.41
2022-09-15T00:57:44.832Z,99344.41
2022-09-15T01:00:14.668Z,99345.13
2022-09-15T01:02:43.664Z,99334.03
2022-09-15T01:05:14.268Z,99338.81
2022-09-15T01:07:52.876Z,99343.88
2022-09-15T01:10:25.965Z,99332.34
2022-09-15T01:12:57.076Z,99342.63
2022-09-15T01:15:38.153Z,99339.38
2022-09-15T01:18:05.134Z,99336.28
2022-09-15T01:20:47.604Z,99332.47
2022-09-15T01:23:35.903Z,99333.50
2022-09-15T01:26:28.999Z,99319.44
2022-09-15T01:29:17.468Z,99337.41
2022-09-15T01:32:10.151Z,99318.88
2022-09-15T01:34:44.151Z,99330.41
2022-09-15T01:37:20.399Z,99328.44
2022-09-15T01:39:51.404Z,99331.53
2022-09-15T01:42:19.592Z,99323.25
2022-09-15T01:44:57.830Z,99335.31
2022-09-15T01:47:25.942Z,99297.22
2022-09-15T01:49:58.850Z,99318.28
2022-09-15T01:52:26.038Z,99311.53
2022-09-15T01:54:57.380Z,99257.31
2022-09-15T01:57:24.580Z,99315.75
2022-09-15T01:59:54.359Z,99276.25
2022-09-15T02:02:50.203Z,99303.47
2022-09-15T02:05:32.509Z,99298.56
2022-09-15T02:08:09.287Z,99292.59
2022-09-15T02:11:19.369Z,99286.16
2022-09-15T02:13:48.802Z,99303.13
2022-09-15T02:16:24.774Z,99287.38
2022-09-15T02:19:00.345Z,99293.84
2022-09-15T02:21:52.729Z,99250.88
2022-09-15T02:24:26.432Z,99287.22
2022-09-15T02:26:55.158Z,99280.47
2022-09-15T02:29:25.791Z,99285.81
2022-09-15T02:31:56.168Z,99287.91
2022-09-15T02:34:27.573Z,99293.13
2022-09-15T02:36:55.165Z,99260.47
2022-09-15T02:39:26.236Z,99262.03
2022-09-15T02:41:52.898Z,99265.00
2022-09-15T02:44:19.681Z,99283.00
2022-09-15T02:46:46.364Z,99285.53
2022-09-15T02:49:13.196Z,99288.06
2022-09-15T02:51:39.857Z,99275.03
2022-09-15T02:54:06.728Z,99286.78
2022-09-15T02:56:33.317Z,99286.38
2022-09-15T02:59:00.008Z,99295.53
2022-09-15T03:01:32.257Z,99290.19
2022-09-15T03:03:59.148Z,99236.53
2022-09-15T03:06:27.953Z,99309.56
2022-09-15T03:08:58.857Z,99273.34
2022-09-15T03:11:27.692Z,99303.97
2022-09-15T03:13:56.573Z,99288.66
2022-09-15T03:16:23.672Z,99286.72
2022-09-15T03:18:50.784Z,99276.16
2022-09-15T03:21:18.581Z,99293.59
2022-09-15T03:23:45.484Z,99300.88
2022-09-15T03:26:12.685Z,99299.06
2022-09-15T03:28:39.779Z,99286.00
2022-09-15T03:31:08.131Z,99299.88
2022-09-15T03:33:35.033Z,99283.69
2022-09-15T03:36:02.981Z,99292.53
2022-09-15T03:38:29.880Z,99302.91
2022-09-15T03:41:01.602Z,99298.97
2022-09-15T03:43:29.782Z,99216.16
2022-09-15T03:45:56.846Z,99281.66
2022-09-15T03:48:24.272Z,99278.09
2022-09-15T03:50:51.570Z,99302.97
2022-09-15T03:53:19.148Z,99304.94
2022-09-15T03:55:47.752Z,99300.97
2022-09-15T03:58:15.241Z,99303.78
2022-09-15T04:00:42.223Z,99255.75
2022-09-15T04:03:09.048Z,99273.22
2022-09-15T04:05:36.281Z,99291.59
2022-09-15T04:08:03.531Z,99362.69
2022-09-15T04:10:30.405Z,99338.09
2022-09-15T04:12:57.512Z,99270.31
2022-09-15T04:15:24.174Z,99324.22
2022-09-15T04:17:50.820Z,99367.50
2022-09-15T04:20:17.783Z,99370.84
2022-09-15T04:22:45.234Z,99369.63
2022-09-15T04:25:12.151Z,99343.63
2022-09-15T04:27:38.987Z,99333.22
2022-09-15T04:30:07.619Z,99306.94
2022-09-15T04:32:35.751Z,99300.03
2022-09-15T04:35:03.087Z,99331.13
2022-09-15T04:37:30.136Z,99324.78
2022-09-15T04:39:56.959Z,99320.56
2022-09-15T04:42:24.041Z,99327.31
2022-09-15T04:44:51.049Z,99339.25
2022-09-15T04:47:18.051Z,99323.09
2022-09-15T04:49:44.685Z,99334.50
2022-09-15T04:52:11.700Z,99321.00
2022-09-15T04:54:38.289Z,99322.53
2022-09-15T04:57:05.026Z,99308.22
2022-09-15T04:59:31.629Z,99329.69
2022-09-15T05:01:58.366Z,99329.84
2022-09-15T05:04:25.052Z,99321.97
2022-09-15T05:06:51.724Z,99339.53
2022-09-15T05:09:18.337Z,99347.84
2022-09-15T05:11:44.944Z,99339.94
2022-09-15T05:14:11.716Z,99345.59
2022-09-15T05:16:40.114Z,99346.69
2022-09-15T05:19:06.896Z,99345.44
2022-09-15T05:21:33.940Z,99369.03
2022-09-15T05:24:00.667Z,99369.34
2022-09-15T05:26:28.887Z,99386.19
2022-09-15T05:28:57.107Z,99368.44
2022-09-15T05:31:30.889Z,99385.75
2022-09-15T05:34:03.864Z,99349.81
2022-09-15T05:36:31.108Z,99394.66
2022-09-15T05:38:58.482Z,99396.94
2022-09-15T05:41:26.979Z,99343.22
2022-09-15T05:43:55.306Z,99367.59
2022-09-15T05:46:22.568Z,99364.97
2022-09-15T05:48:49.265Z,99336.28
2022-09-15T05:51:15.906Z,99386.31
2022-09-15T05:53:42.617Z,99369.06
2022-09-15T05:56:14.208Z,99368.78
2022-09-15T05:58:42.965Z,99384.94
2022-09-15T06:01:14.789Z,99372.56
2022-09-15T06:03:41.467Z,99351.00
2022-09-15T06:06:08.213Z,99383.28
2022-09-15T06:08:43.921Z,99409.81
2022-09-15T06:11:19.862Z,99388.97
2022-09-15T06:13:47.751Z,99401.50
2022-09-15T06:16:35.086Z,99379.06
2022-09-15T06:19:02.223Z,99363.59
2022-09-15T06:21:30.322Z,99392.56
2022-09-15T06:23:59.155Z,99334.22
2022-09-15T06:26:27.293Z,99366.41
2022-09-15T06:28:57.179Z,99376.19
2022-09-15T06:31:25.428Z,99379.28
2022-09-15T06:33:54.296Z,99382.25
2022-09-15T06:36:23.120Z,99385.63
2022-09-15T06:38:50.043Z,99378.44
2022-09-15T06:41:16.903Z,99352.53
2022-09-15T06:43:44.496Z,99384.97
2022-09-15T06:46:14.323Z,99386.97
2022-09-15T06:48:44.230Z,99393.25
2022-09-15T06:51:14.098Z,99405.66
2022-09-15T06:53:41.119Z,99392.06
2022-09-15T06:56:13.766Z,99337.34
2022-09-15T06:58:42.083Z,99417.84
2022-09-15T07:01:13.849Z,99412.66
2022-09-15T07:03:43.360Z,99411.75
2022-09-15T07:06:12.133Z,99425.88
2022-09-15T07:08:39.815Z,99397.19
2022-09-15T07:11:07.579Z,99409.78
2022-09-15T07:13:34.276Z,99402.94
2022-09-15T07:16:04.074Z,99427.16
2022-09-15T07:18:31.423Z,99430.75
2022-09-15T07:21:00.375Z,99417.41
2022-09-15T07:23:27.229Z,99399.53
2022-09-15T07:26:05.804Z,99413.22
2022-09-15T07:28:33.021Z,99425.56
2022-09-15T07:30:59.772Z,99430.34
2022-09-15T07:33:26.446Z,99435.22
2022-09-15T07:35:53.045Z,99438.75
2022-09-15T07:38:19.776Z,99449.97
2022-09-15T07:40:48.686Z,99442.97
2022-09-15T07:43:16.240Z,99454.53
2022-09-15T07:45:42.864Z,99437.19
2022-09-15T07:48:09.496Z,99445.66
2022-09-15T07:50:36.136Z,99431.50
2022-09-15T07:53:02.864Z,99401.78
2022-09-15T07:55:30.456Z,99451.56
2022-09-15T07:57:58.705Z,99437.28
2022-09-15T08:00:25.769Z,99439.00
2022-09-15T08:02:52.624Z,99457.53
2022-09-15T08:05:19.479Z,99423.09
2022-09-15T08:07:46.317Z,99436.00
2022-09-15T08:10:13.004Z,99439.38
2022-09-15T08:12:40.813Z,99437.34
2022-09-15T08:15:07.872Z,99451.13
2022-09-15T08:17:35.052Z,99456.03
2022-09-15T08:20:02.255Z,99459.38
2022-09-15T08:22:29.059Z,99458.38
2022-09-15T08:24:55.816Z,99439.28
2022-09-15T08:27:22.878Z,99439.06
2022-09-15T08:29:49.649Z,99436.03
2022-09-15T08:32:16.244Z,99457.81
2022-09-15T08:34:42.848Z,99455.97
2022-09-15T08:37:09.447Z,99422.91
2022-09-15T08:39:36.308Z,99418.84
2022-09-15T08:42:04.025Z,99435.28
2022-09-15T08:44:37.691Z,99431.19
2022-09-15T08:47:33.684Z,99435.50
2022-09-15T08:50:08.273Z,99435.50
2022-09-15T08:52:59.469Z,99420.63
2022-09-15T08:55:46.895Z,99431.50
2022-09-15T08:58:17.376Z,99402.81
2022-09-15T09:00:46.839Z,99399.44
2022-09-15T09:03:16.042Z,99429.06
2022-09-15T09:05:45.783Z,99414.50
2022-09-15T09:08:31.737Z,99417.75
2022-09-15T09:11:33.077Z,99390.03
2022-09-15T09:14:08.467Z,99412.22
2022-09-15T09:16:56.397Z,99409.69
2022-09-15T09:19:40.490Z,99394.41
2022-09-15T09:22:12.667Z,99389.19
2022-09-15T09:24:48.075Z,99382.47
2022-09-15T09:27:20.727Z,99380.22
2022-09-15T09:30:01.395Z,99384.16
2022-09-15T09:32:39.239Z,99346.91
2022-09-15T09:35:14.895Z,99388.94
2022-09-15T09:37:41.566Z,99360.78
2022-09-15T09:40:13.938Z,99381.59
2022-09-15T09:42:41.109Z,99366.66
2022-09-15T09:45:13.508Z,99361.81
2022-09-15T09:47:42.018Z,99370.19
2022-09-15T09:50:33.498Z,99335.59
2022-09-15T09:53:00.625Z,99339.41
2022-09-15T09:55:28.187Z,99359.59
2022-09-15T09:58:12.636Z,99336.34
2022-09-15T10:00:41.232Z,99342.41
2022-09-15T10:03:19.722Z,99337.00
2022-09-15T10:06:07.611Z,99335.91
2022-09-15T10:08:36.472Z,99329.28
2022-09-15T10:11:06.728Z,99330.84
2022-09-15T10:13:50.436Z,99324.84
2022-09-15T10:16:19.483Z,99296.00
2022-09-15T10:18:53.998Z,99299.22
2022-09-15T10:21:24.651Z,99285.72
2022-09-15T10:23:51.355Z,99297.00
2022-09-15T10:26:17.972Z,99304.25
2022-09-15T10:28:45.285Z,99263.94
2022-09-15T10:31:24.386Z,99267.88
2022-09-15T10:33:51.007Z,99290.41
2022-09-15T10:36:28.310Z,99297.78
2022-09-15T10:39:22.116Z,99302.13
2022-09-15T10:42:16.905Z,99301.47
2022-09-15T10:44:49.340Z,99313.00
2022-09-15T10:47:33.725Z,99305.38
2022-09-15T10:50:09.041Z,99312.88
2022-09-15T10:53:13.397Z,99289.06
2022-09-15T10:55:53.386Z,99301.31
2022-09-15T10:59:01.123Z,99261.31
2022-09-15T11:01:30.685Z,99293.69
2022-09-15T11:04:18.200Z,99285.81
2022-09-15T11:07:11.069Z,99292.78
2022-09-15T11:10:00.812Z,99303.59
2022-09-15T11:12:51.797Z,99290.84
2022-09-15T11:15:26.289Z,99289.72
2022-09-15T11:18:08.047Z,99285.53
2022-09-15T11:21:02.420Z,99285.06
2022-09-15T11:23:33.857Z,99261.00
2022-09-15T11:26:06.950Z,99258.28
2022-09-15T11:28:36.753Z,99272.63
2022-09-15T11:31:40.259Z,99258.53
2022-09-15T11:34:57.056Z,99277.69
2022-09-15T11:37:29.805Z,99275.25
2022-09-15T11:40:07.965Z,99258.88
2022-09-15T11:42:52.037Z,99270.22
2022-09-15T11:45:25.729Z,99247.50
2022-09-15T11:48:13.067Z,99241.22
2022-09-15T11:50:43.920Z,99249.09
2022-09-15T11:53:25.984Z,99249.56
2022-09-15T11:56:00.666Z,99241.91
2022-09-15T11:58:48.900Z,99244.38
2022-09-15T12:01:25.052Z,99242.38
2022-09-15T12:03:56.185Z,99238.69
2022-09-15T12:06:45.890Z,99230.44
2022-09-15T12:09:17.769Z,99223.25
2022-09-15T12:11:47.836Z,99198.78
2022-09-15T12:14:27.417Z,99194.59
2022-09-15T12:16:54.960Z,99192.38
2022-09-15T12:19:21.939Z,99209.25
2022-09-15T12:21:57.771Z,99197.06
2022-09-15T12:24:38.883Z,99216.66
2022-09-15T12:27:05.757Z,99209.63
2022-09-15T12:29:42.115Z,99221.09
2022-09-15T12:32:18.666Z,99217.16
2022-09-15T12:35:20.205Z,99220.44
2022-09-15T12:37:55.827Z,99219.22
2022-09-15T12:40:38.902Z,99215.31
2022-09-15T12:43:11.701Z,99217.28
2022-09-15T12:45:39.969Z,99206.25
2022-09-15T12:48:20.463Z,99213.19
2022-09-15T12:50:59.728Z,99195.31
2022-09-15T12:53:26.294Z,99200.34
2022-09-15T12:56:03.644Z,99195.19
2022-09-15T12:58:40.788Z,99195.19
2022-09-15T13:01:19.797Z,99185.66
2022-09-15T13:03:46.617Z,99175.09
2022-09-15T13:06:19.478Z,99149.84
2022-09-15T13:08:47.077Z,99138.91
2022-09-15T13:11:29.780Z,99128.59
2022-09-15T13:14:08.385Z,99127.34
2022-09-15T13:16:43.950Z,99119.94
2022-09-15T13:19:32.759Z,99123.00
2022-09-15T13:22:12.388Z,99111.00
2022-09-15T13:24:57.797Z,99134.94
2022-09-15T13:27:42.327Z,99107.91
2022-09-15T13:30:24.443Z,99133.66
2022-09-15T13:35:01.111Z,99132.25
2022-09-15T13:39:40.624Z,99148.56
2022-09-15T13:42:24.633Z,99143.84
2022-09-15T13:45:23.569Z,99144.31
2022-09-15T13:47:58.236Z,99140.75
2022-09-15T13:50:26.269Z,99124.00
2022-09-15T13:53:25.590Z,99122.66
2022-09-15T13:55:55.568Z,99126.97
2022-09-15T14:01:13.203Z,99157.06
2022-09-15T14:03:52.303Z,99185.16
2022-09-15T14:06:54.981Z,99193.84
2022-09-15T14:09:28.093Z,99190.91
2022-09-15T14:11:59.407Z,99215.31
2022-09-15T14:14:45.161Z,99215.66
2022-09-15T14:17:28.726Z,99167.63
2022-09-15T14:19:58.666Z,99188.28
2022-09-15T14:22:33.863Z,99171.44
2022-09-15T14:25:07.860Z,99165.41
2022-09-15T14:27:36.561Z,99189.97
2022-09-15T14:30:07.426Z,99170.50
2022-09-15T14:32:39.448Z,99163.50
2022-09-15T14:35:09.210Z,99152.22
2022-09-15T14:37:35.908Z,99060.75
2022-09-15T14:40:19.417Z,99103.34
2022-09-15T14:42:46.109Z,99135.41
2022-09-15T14:48:15.660Z,99144.94
2022-09-15T14:50:44.825Z,99146.88
2022-09-15T14:53:16.348Z,99140.97
2022-09-15T14:56:07.726Z,99120.72
2022-09-15T14:58:44.762Z,99132.66
2022-09-15T15:01:25.956Z,99126.34
2022-09-15T15:04:09.888Z,99147.00
2022-09-15T15:07:01.828Z,99132.09
2022-09-15T15:09:35.607Z,99124.66
2022-09-15T15:12:07.378Z,99098.69
2022-09-15T15:14:35.795Z,99134.41
2022-09-15T15:17:08.248Z,99103.22
2022-09-15T15:19:41.470Z,99142.66
2022-09-15T15:22:15.408Z,99142.28
2022-09-15T15:24:45.062Z,99127.72
2022-09-15T15:27:33.350Z,99133.38
2022-09-15T15:30:26.792Z,99112.91
2022-09-15T15:32:54.201Z,99102.63
2022-09-15T15:35:21.280Z,99092.19
2022-09-15T15:37:49.699Z,99082.75
2022-09-15T15:40:23.218Z,99119.28
2022-09-15T15:43:23.834Z,99137.41
2022-09-15T15:45:58.252Z,99144.94
2022-09-15T15:48:26.585Z,99153.59
2022-09-15T15:50:53.568Z,99152.56
2022-09-15T15:53:20.827Z,99131.22
2022-09-15T15:55:47.625Z,99160.06
2022-09-15T15:58:15.224Z,99134.66
2022-09-15T16:00:45.277Z,99142.53
2022-09-15T16:03:13.577Z,99151.84
2022-09-15T16:05:43.907Z,99169.94
2022-09-15T16:08:19.772Z,99161.06
2022-09-15T16:10:49.432Z,99160.22
2022-09-15T16:13:18.202Z,99148.56
2022-09-15T16:15:45.753Z,99130.75
2022-09-15T16:18:13.129Z,99132.88
2022-09-15T16:20:40.432Z,99150.66
2022-09-15T16:23:07.210Z,99129.31
2022-09-15T16:25:51.229Z,99136.56
2022-09-15T16:28:18.223Z,99114.97
2022-09-15T16:30:44.889Z,99121.19
2022-09-15T16:33:16.950Z,99138.44
2022-09-15T16:35:51.257Z,99132.34
2022-09-15T16:38:20.454Z,99089.25
2022-09-15T16:40:48.265Z,99130.88
2022-09-15T16:43:20.893Z,99145.59
2022-09-15T16:45:48.055Z,99140.53
2022-09-15T16:48:15.374Z,99153.66
2022-09-15T16:50:50.518Z,99158.00
2022-09-15T16:53:30.942Z,99158.81
2022-09-15T16:55:58.688Z,99151.03
2022-09-15T16:58:25.316Z,99163.00
2022-09-15T17:00:52.906Z,99157.50
2022-09-15T17:03:22.902Z,99162.59
2022-09-15T17:05:52.200Z,99171.59
2022-09-15T17:08:33.021Z,99164.38
2022-09-15T17:11:02.131Z,99157.69
2022-09-15T17:13:31.647Z,99130.69
2022-09-15T17:15:59.709Z,99104.38
2022-09-15T17:18:27.451Z,99149.50
2022-09-15T17:20:54.256Z,99127.25
2022-09-15T17:23:31.122Z,99110.84
2022-09-15T17:26:00.072Z,99108.56
2022-09-15T17:28:32.609Z,99089.50
2022-09-15T17:31:01.979Z,99113.38
2022-09-15T17:33:31.078Z,99101.97
2022-09-15T17:35:58.385Z,99086.44
2022-09-15T17:38:25.621Z,99069.44
2022-09-15T17:40:55.220Z,99033.50
2022-09-15T17:43:23.250Z,99089.50
2022-09-15T17:45:50.837Z,99099.72
2022-09-15T17:48:17.812Z,99090.22
2022-09-15T17:50:45.408Z,99077.75
2022-09-15T17:53:14.814Z,99102.72
2022-09-15T17:55:41.768Z,99092.06
2022-09-15T17:58:09.280Z,99107.34
2022-09-15T18:00:37.792Z,99126.84
2022-09-15T18:03:35.633Z,99130.50
2022-09-15T18:06:07.817Z,99120.84
2022-09-15T18:08:36.123Z,99130.09
2022-09-15T18:11:04.124Z,99124.03
2022-09-15T18:13:31.467Z,99151.84
2022-09-15T18:16:03.326Z,99151.25
2022-09-15T18:18:30.438Z,99138.50
2022-09-15T18:20:58.503Z,99152.28
2022-09-15T18:23:29.399Z,99110.00
2022-09-15T18:25:56.694Z,99143.41
2022-09-15T18:28:23.371Z,99148.31
2022-09-15T18:30:50.614Z,99178.69
2022-09-15T18:33:19.331Z,99170.94
2022-09-15T18:35:46.958Z,99167.03
2022-09-15T18:38:13.736Z,99161.53
2022-09-15T18:40:49.140Z,99166.59
2022-09-15T18:43:19.665Z,99153.13
2022-09-15T18:45:46.440Z,99170.94
2022-09-15T18:48:13.477Z,99172.09
2022-09-15T18:50:41.474Z,99152.16
2022-09-15T18:53:08.434Z,99153.66
2022-09-15T18:55:35.455Z,99144.81
2022-09-15T18:58:02.734Z,99162.25
2022-09-15T19:00:30.032Z,99155.78
2022-09-15T19:03:02.006Z,99143.56
2022-09-15T19:05:30.545Z,99112.69
2022-09-15T19:07:57.955Z,99149.03
2022-09-15T19:10:26.748Z,99156.91
2022-09-15T19:12:54.361Z,99164.91
2022-09-15T19:15:25.016Z,99115.34
2022-09-15T19:17:52.698Z,99155.06
2022-09-15T19:20:19.632Z,99181.03
2022-09-15T19:22:47.500Z,99186.25
2022-09-15T19:25:14.763Z,99200.97
2022-09-15T19:27:41.546Z,99155.75
2022-09-15T19:30:10.195Z,99205.06
2022-09-15T19:32:37.745Z,99185.97
2022-09-15T19:35:04.870Z,99198.63
2022-09-15T19:37:31.546Z,99193.38
2022-09-15T19:39:58.327Z,99212.47
2022-09-15T19:42:25.101Z,99199.16
2022-09-15T19:44:51.825Z,99209.53
2022-09-15T19:47:18.589Z,99211.22
2022-09-15T19:49:45.255Z,99200.84
2022-09-15T19:52:12.860Z,99195.78
2022-09-15T19:54:39.557Z,99198.00
2022-09-15T19:57:06.234Z,99196.59
2022-09-15T19:59:32.869Z,99207.16
2022-09-15T20:02:00.978Z,99168.22
2022-09-15T20:04:28.816Z,99152.75
2022-09-15T20:06:55.498Z,99230.75
2022-09-15T20:09:22.635Z,99230.75
2022-09-15T20:11:49.372Z,99231.44
2022-09-15T20:14:16.397Z,99243.63
2022-09-15T20:16:43.924Z,99245.19
2022-09-15T20:19:10.939Z,99246.00
2022-09-15T20:21:54.036Z,99245.88
2022-09-15T20:24:22.064Z,99222.28
2022-09-15T20:26:48.730Z,99238.00
2022-09-15T20:29:15.534Z,99190.50
2022-09-15T20:31:42.594Z,99251.13
2022-09-15T20:34:10.236Z,99241.13
2022-09-15T20:36:38.882Z,99220.22
2022-09-15T20:39:09.487Z,99273.25
2022-09-15T20:41:37.020Z,99283.63
2022-09-15T20:44:05.267Z,99299.66
2022-09-15T20:46:31.880Z,99325.94
2022-09-15T20:48:58.499Z,99309.63
2022-09-15T20:51:31.552Z,99327.75
2022-09-15T20:53:59.807Z,99315.53
2022-09-15T20:56:29.250Z,99325.81
2022-09-15T20:59:00.773Z,99316.13
2022-09-15T21:01:30.601Z,99303.72
2022-09-15T21:03:57.330Z,99293.78
2022-09-15T21:06:27.267Z,99307.28
2022-09-15T21:08:55.608Z,99309.88
2022-09-15T21:11:23.984Z,99311.72
2022-09-15T21:13:50.797Z,99276.44
2022-09-15T21:16:20.934Z,99285.53
2022-09-15T21:18:48.518Z,99274.25
2022-09-15T21:21:18.285Z,99335.75
2022-09-15T21:23:45.439Z,99331.47
2022-09-15T21:26:14.659Z,99306.56
2022-09-15T21:28:43.512Z,99326.53
2022-09-15T21:31:13.437Z,99295.91
2022-09-15T21:33:40.469Z,99277.97
2022-09-15T21:36:09.959Z,99313.91
2022-09-15T21:38:38.284Z,99303.16
2022-09-15T21:41:06.449Z,99302.78
2022-09-15T21:43:36.083Z,99295.44
2022-09-15T21:46:04.944Z,99305.50
2022-09-15T21:48:32.550Z,99327.38
2022-09-15T21:51:00.015Z,99330.22
2022-09-15T21:53:27.091Z,99310.94
2022-09-15T21:55:54.828Z,99323.28
2022-09-15T21:58:26.191Z,99293.88
2022-09-15T22:00:53.441Z,99323.91
2022-09-15T22:03:20.819Z,99312.88
2022-09-15T22:05:48.215Z,99325.69
2022-09-15T22:08:16.251Z,99337.91
2022-09-15T22:11:00.714Z,99386.50
2022-09-15T22:13:28.150Z,99399.63
2022-09-15T22:16:07.779Z,99375.59
2022-09-15T22:18:38.188Z,99415.25
2022-09-15T22:21:06.058Z,99413.69
2022-09-15T22:23:32.678Z,99418.78
2022-09-15T22:26:04.818Z,99425.59
2022-09-15T22:28:32.103Z,99410.78
2022-09-15T22:31:00.255Z,99416.81
2022-09-15T22:33:27.403Z,99428.31
2022-09-15T22:35:54.353Z,99420.59
2022-09-15T22:38:21.207Z,99392.72
2022-09-15T22:40:47.789Z,99436.84
2022-09-15T22:43:14.367Z,99415.56
2022-09-15T22:45:40.956Z,99435.47
2022-09-15T22:48:07.572Z,99415.50
2022-09-15T22:50:34.156Z,99417.56
2022-09-15T22:53:00.786Z,99415.63
2022-09-15T22:55:27.582Z,99400.56
2022-09-15T22:57:54.152Z,99317.28
2022-09-15T23:00:21.036Z,99322.25
2022-09-15T23:02:48.167Z,99391.31
2022-09-15T23:05:14.890Z,99331.91
2022-09-15T23:07:42.247Z,99309.06
2022-09-15T23:10:09.078Z,99399.78
2022-09-15T23:12:35.606Z,99387.13
2022-09-15T23:15:04.369Z,99398.94
2022-09-15T23:17:31.645Z,99382.59
2022-09-15T23:19:58.220Z,99388.53
2022-09-15T23:22:24.762Z,99332.75
2022-09-15T23:24:51.313Z,99385.03
2022-09-15T23:27:18.206Z,99402.69
2022-09-15T23:29:44.855Z,99397.78
2022-09-15T23:32:11.405Z,99388.97
2022-09-15T23:34:37.957Z,99355.00
2022-09-15T23:37:04.555Z,99404.31
2022-09-15T23:39:31.133Z,99397.19
2022-09-15T23:41:57.774Z,99398.16
2022-09-15T23:44:24.327Z,99396.72
2022-09-15T23:46:50.899Z,99428.25
2022-09-15T23:49:18.784Z,99418.09
2022-09-15T23:51:45.525Z,99404.94
2022-09-15T23:54:12.142Z,99414.25
2022-09-15T23:56:38.700Z,99434.53
2022-09-15T23:59:05.237Z,99436.84
